Time;durP1;ratioP1;P1;durP2;ratioP2;P2;SDS_P1;SDS_P2;PMS_P1;PMS_P2;Temp;Humidity;BMP_temperature;BMP_pressure;BME280_temperature;BME280_humidity;BME280_pressure;Samples;Min_cycle;Max_cycle;Signal;HPM_P1;HPM_P2
2022/08/11 00:00:34;;;;;;;0.50;0.30;;;20.20;99.90;;;;;;5074406;28;20455;-76
2022/08/11 00:03:06;;;;;;;0.50;0.30;;;20.10;99.90;;;;;;5074159;28;20408;-76
2022/08/11 00:05:42;;;;;;;0.50;0.30;;;20.00;99.90;;;;;;5073123;28;20441;-76
2022/08/11 00:08:10;;;;;;;0.50;0.40;;;19.90;99.90;;;;;;5073530;28;20435;-76
2022/08/11 00:10:38;;;;;;;0.50;0.40;;;19.90;99.90;;;;;;5073251;28;20440;-76
2022/08/11 00:13:07;;;;;;;0.50;0.40;;;19.80;99.90;;;;;;5073515;28;20812;-75
2022/08/11 00:15:41;;;;;;;0.50;0.30;;;19.70;99.90;;;;;;5072627;28;20447;-76
2022/08/11 00:18:10;;;;;;;0.50;0.30;;;19.70;99.90;;;;;;5072952;28;20804;-76
2022/08/11 00:20:41;;;;;;;0.50;0.30;;;19.60;99.90;;;;;;5073457;28;20456;-76
2022/08/11 00:23:10;;;;;;;0.50;0.30;;;19.60;99.90;;;;;;5073184;28;20848;-76
2022/08/11 00:25:42;;;;;;;0.50;0.30;;;19.50;99.90;;;;;;5071462;28;20442;-76
2022/08/11 00:28:34;;;;;;;0.50;0.30;;;19.50;99.90;;;;;;5073043;28;20442;-76
2022/08/11 00:31:05;;;;;;;0.50;0.30;;;19.40;99.90;;;;;;5053586;28;20460;-76
2022/08/11 00:33:37;;;;;;;0.50;0.30;;;19.30;99.90;;;;;;5073002;28;20800;-76
2022/08/11 00:36:05;;;;;;;0.50;0.30;;;19.30;99.90;;;;;;5072518;28;20412;-75
2022/08/11 00:38:36;;;;;;;0.50;0.40;;;19.20;99.90;;;;;;5072796;28;20463;-74
2022/08/11 00:41:15;;;;;;;1.93;1.73;;;19.20;99.90;;;;;;5072689;28;20425;-76
2022/08/11 00:44:07;;;;;;;0.50;0.40;;;19.20;99.90;;;;;;5072883;28;20472;-76
2022/08/11 00:46:50;;;;;;;0.50;0.30;;;19.10;99.90;;;;;;5072163;28;20421;-75
2022/08/11 00:49:39;;;;;;;0.50;0.30;;;19.00;99.90;;;;;;5072530;28;20456;-76
2022/08/11 00:52:19;;;;;;;0.50;0.30;;;19.00;99.90;;;;;;5072988;28;20444;-76
2022/08/11 00:55:11;;;;;;;0.50;0.33;;;18.90;99.90;;;;;;5072044;28;20440;-76
2022/08/11 00:58:18;;;;;;;0.50;0.30;;;18.90;99.90;;;;;;5072387;28;20441;-76
2022/08/11 01:01:05;;;;;;;0.80;0.80;;;18.90;99.90;;;;;;5072002;28;20951;-76
2022/08/11 01:03:57;;;;;;;0.50;0.37;;;18.90;99.90;;;;;;5072548;28;20463;-76
2022/08/11 01:06:57;;;;;;;2.13;1.73;;;18.90;99.90;;;;;;5072505;28;20813;-76
2022/08/11 01:09:59;;;;;;;0.50;0.40;;;18.80;99.90;;;;;;5072140;28;20481;-76
2022/08/11 01:12:44;;;;;;;0.50;0.40;;;18.70;99.90;;;;;;5071753;28;20430;-76
2022/08/11 01:15:48;;;;;;;0.50;0.30;;;18.60;99.90;;;;;;5071886;28;20805;-76
2022/08/11 01:18:52;;;;;;;0.50;0.30;;;18.60;99.90;;;;;;5065140;28;20466;-74
2022/08/11 01:22:00;;;;;;;0.50;0.30;;;18.70;99.90;;;;;;5071635;28;20424;-76
2022/08/11 01:25:00;;;;;;;0.50;0.30;;;18.70;99.90;;;;;;5037546;28;20478;-76
2022/08/11 01:28:09;;;;;;;0.50;0.40;;;18.70;99.90;;;;;;5072182;28;20424;-76
2022/08/11 01:31:10;;;;;;;0.50;0.30;;;18.70;99.90;;;;;;5024546;28;20805;-76
2022/08/11 01:34:12;;;;;;;0.50;0.30;;;18.60;99.90;;;;;;5071621;28;20925;-76
2022/08/11 01:37:02;;;;;;;0.50;0.30;;;18.50;99.90;;;;;;5071632;28;20459;-76
2022/08/11 01:40:05;;;;;;;0.50;0.30;;;18.50;99.90;;;;;;5071705;28;20501;-76
2022/08/11 01:46:15;;;;;;;0.50;0.30;;;18.40;99.90;;;;;;5071262;28;20404;-76
2022/08/11 01:48:45;;;;;;;0.50;0.40;;;18.40;99.90;;;;;;5071498;28;20536;-76
2022/08/11 01:51:24;;;;;;;0.50;0.40;;;18.40;99.90;;;;;;5071484;28;20442;-76
2022/08/11 01:54:02;;;;;;;0.50;0.30;;;18.40;99.90;;;;;;5070827;28;20413;-76
2022/08/11 01:56:57;;;;;;;0.50;0.30;;;18.30;99.90;;;;;;5071426;28;20523;-76
2022/08/11 01:59:29;;;;;;;0.50;0.40;;;18.20;99.90;;;;;;5071715;28;20546;-76
2022/08/11 02:02:44;;;;;;;0.50;0.30;;;18.20;99.90;;;;;;5071713;28;20421;-76
2022/08/11 02:05:22;;;;;;;0.50;0.30;;;18.20;99.90;;;;;;5070949;28;20482;-76
2022/08/11 02:08:00;;;;;;;0.50;0.30;;;18.10;99.90;;;;;;5071463;28;20444;-76
2022/08/11 02:13:32;;;;;;;0.50;0.40;;;18.10;99.90;;;;;;5071343;28;20402;-76
2022/08/11 02:16:09;;;;;;;0.50;0.30;;;18.10;99.90;;;;;;5071401;28;20455;-76
2022/08/11 02:24:23;;;;;;;0.50;0.40;;;18.00;99.90;;;;;;5070875;28;20505;-76
2022/08/11 02:27:01;;;;;;;0.50;0.40;;;17.90;99.90;;;;;;5071240;28;20435;-76
2022/08/11 02:29:34;;;;;;;0.50;0.30;;;17.90;99.90;;;;;;5070986;28;20460;-76
2022/08/11 02:35:04;;;;;;;0.50;0.40;;;17.90;99.90;;;;;;5070677;28;20481;-77
2022/08/11 02:37:44;;;;;;;0.50;0.30;;;17.90;99.90;;;;;;5070966;28;20419;-76
2022/08/11 02:40:22;;;;;;;0.50;0.30;;;17.90;99.90;;;;;;5071026;28;20860;-74
2022/08/11 02:43:09;;;;;;;0.50;0.40;;;17.90;99.90;;;;;;5070804;28;20447;-76
2022/08/11 02:45:47;;;;;;;0.50;0.40;;;17.80;99.90;;;;;;5071020;28;20525;-76
2022/08/11 02:51:32;;;;;;;0.50;0.40;;;17.80;99.90;;;;;;5074674;28;20522;-76
2022/08/11 02:54:08;;;;;;;0.50;0.40;;;17.80;99.90;;;;;;5074707;28;20454;-76
2022/08/11 02:56:45;;;;;;;0.50;0.40;;;17.70;99.90;;;;;;5074332;28;20449;-75
2022/08/11 03:02:21;;;;;;;0.50;0.50;;;17.70;99.90;;;;;;5074651;28;20408;-73
2022/08/11 03:05:00;;;;;;;0.50;0.37;;;17.70;99.90;;;;;;5074310;28;20915;-76
2022/08/11 03:07:33;;;;;;;0.50;0.40;;;17.70;99.90;;;;;;5074258;28;20440;-75
2022/08/11 03:10:08;;;;;;;0.50;0.40;;;17.70;99.90;;;;;;5074752;28;20479;-76
2022/08/11 03:18:37;;;;;;;0.50;0.40;;;17.80;99.90;;;;;;5072877;28;20456;-75
2022/08/11 03:21:10;;;;;;;0.50;0.40;;;17.80;99.90;;;;;;5075582;28;20428;-76
2022/08/11 03:23:45;;;;;;;0.50;0.40;;;17.70;99.90;;;;;;5073893;28;20522;-73
2022/08/11 03:26:23;;;;;;;0.50;0.30;;;17.70;99.90;;;;;;5073898;28;20443;-76
2022/08/11 03:29:00;;;;;;;0.50;0.40;;;17.60;99.90;;;;;;5074280;28;20873;-76
2022/08/11 03:31:34;;;;;;;0.50;0.40;;;17.60;99.90;;;;;;5073915;28;20424;-77
2022/08/11 03:34:06;;;;;;;0.50;0.40;;;17.60;99.90;;;;;;5074048;28;20805;-76
2022/08/11 03:36:57;;;;;;;0.50;0.40;;;17.60;99.90;;;;;;5073951;28;20424;-76
2022/08/11 03:39:41;;;;;;;0.50;0.40;;;17.50;99.90;;;;;;5074134;28;20460;-76
2022/08/11 03:42:20;;;;;;;0.50;0.40;;;17.40;99.90;;;;;;5073291;28;20440;-76
2022/08/11 03:45:03;;;;;;;0.50;0.40;;;17.40;99.90;;;;;;5073467;28;20558;-75
2022/08/11 03:48:09;;;;;;;0.50;0.30;;;17.40;99.90;;;;;;5073698;28;20448;-76
2022/08/11 03:50:55;;;;;;;0.50;0.40;;;17.40;99.90;;;;;;5074027;28;20528;-76
2022/08/11 03:53:44;;;;;;;0.50;0.40;;;17.40;99.90;;;;;;5073406;28;20444;-76
2022/08/11 03:56:38;;;;;;;0.50;0.30;;;17.30;99.90;;;;;;5070303;28;20484;-75
2022/08/11 03:59:50;;;;;;;0.50;0.40;;;17.30;99.90;;;;;;5028927;28;20463;-76
2022/08/11 04:02:40;;;;;;;0.50;0.40;;;17.20;99.90;;;;;;4991791;28;20454;-74
2022/08/11 04:06:06;;;;;;;0.50;0.40;;;17.10;99.90;;;;;;4991364;28;20468;-76
2022/08/11 04:09:05;;;;;;;0.50;0.40;;;17.10;99.90;;;;;;5073355;28;20455;-75
2022/08/11 04:12:01;;;;;;;0.50;0.40;;;17.00;99.90;;;;;;5073582;28;20424;-76
2022/08/11 04:18:20;;;;;;;0.50;0.40;;;17.00;99.90;;;;;;5073307;28;20469;-76
2022/08/11 04:21:19;;;;;;;0.50;0.40;;;17.00;99.90;;;;;;5073260;28;20800;-76
2022/08/11 04:24:27;;;;;;;0.50;0.40;;;17.00;99.90;;;;;;5066689;28;20960;-75
2022/08/11 04:27:20;;;;;;;0.50;0.40;;;17.10;99.90;;;;;;5073208;28;20808;-77
2022/08/11 04:30:03;;;;;;;0.50;0.40;;;17.20;99.90;;;;;;5072789;28;20459;-76
2022/08/11 04:32:44;;;;;;;0.50;0.40;;;17.30;99.90;;;;;;5072392;28;20448;-77
2022/08/11 04:35:32;;;;;;;0.50;0.40;;;17.30;99.90;;;;;;5072725;28;20416;-75
2022/08/11 04:38:39;;;;;;;0.50;0.40;;;17.30;99.90;;;;;;5072855;28;20433;-76
2022/08/11 04:45:09;;;;;;;0.50;0.30;;;17.40;99.90;;;;;;5072131;28;20465;-77
2022/08/11 05:03:35;;;;;;;0.50;0.40;;;17.50;99.90;;;;;;5072361;28;20505;-77
2022/08/11 05:06:29;;;;;;;0.50;0.37;;;17.60;99.90;;;;;;4990226;28;20479;-75
2022/08/11 05:09:22;;;;;;;0.50;0.40;;;17.60;99.90;;;;;;5071413;28;20468;-76
2022/08/11 05:12:18;;;;;;;0.60;0.40;;;17.70;99.90;;;;;;5072052;28;20421;-77
2022/08/11 05:37:19;;;;;;;0.50;0.40;;;18.30;99.90;;;;;;5071342;28;20470;-76
2022/08/11 05:56:33;;;;;;;0.50;0.40;;;19.10;99.90;;;;;;5071324;28;20396;-76
2022/08/11 05:59:01;;;;;;;0.50;0.37;;;19.20;99.90;;;;;;5070955;28;20992;-76
2022/08/11 06:01:31;;;;;;;0.50;0.30;;;19.40;99.90;;;;;;5071141;28;20442;-77
2022/08/11 06:04:14;;;;;;;0.50;0.40;;;19.40;99.90;;;;;;5070879;28;20722;-77
2022/08/11 06:06:51;;;;;;;0.50;0.40;;;19.80;99.90;;;;;;5071005;28;20419;-77
2022/08/11 06:09:27;;;;;;;0.50;0.30;;;21.40;99.90;;;;;;5071235;28;20462;-76
2022/08/11 06:11:57;;;;;;;0.50;0.30;;;23.30;99.90;;;;;;5070820;28;20423;-78
2022/08/11 06:14:26;;;;;;;0.50;0.30;;;25.00;99.90;;;;;;5070507;28;20523;-77
2022/08/11 06:16:58;;;;;;;0.50;0.30;;;25.80;94.30;;;;;;5070962;28;20440;-78
2022/08/11 06:19:34;;;;;;;0.50;0.30;;;27.00;91.20;;;;;;5070729;28;20468;-79
2022/08/11 06:22:04;;;;;;;0.50;0.40;;;28.20;79.30;;;;;;5070849;28;20484;-77
2022/08/11 06:24:32;;;;;;;0.50;0.30;;;29.20;76.10;;;;;;5073782;28;20507;-78
2022/08/11 06:27:00;;;;;;;0.50;0.30;;;30.40;68.60;;;;;;5075062;28;20448;-78
2022/08/11 06:29:28;;;;;;;0.50;0.30;;;31.40;65.70;;;;;;5075346;28;20539;-76
2022/08/11 06:32:00;;;;;;;0.50;0.40;;;32.10;59.50;;;;;;5074940;28;20438;-78
2022/08/11 06:34:35;;;;;;;0.50;0.30;;;32.30;57.60;;;;;;5074344;28;20440;-78
2022/08/11 06:37:16;;;;;;;0.50;0.30;;;32.50;56.50;;;;;;5075013;28;20422;-76
2022/08/11 06:39:48;;;;;;;0.50;0.50;;;33.30;56.10;;;;;;5074485;28;20495;-77
2022/08/11 06:42:32;;;;;;;0.50;0.30;;;34.20;55.00;;;;;;5074386;28;20448;-78
2022/08/11 06:45:07;;;;;;;17.27;1.40;;;34.80;52.30;;;;;;5074010;28;20460;-78
2022/08/11 06:47:35;;;;;;;0.50;0.30;;;34.60;51.60;;;;;;5074670;28;20936;-78
2022/08/11 06:52:48;;;;;;;0.50;0.30;;;34.90;50.70;;;;;;5074545;28;20470;-78
2022/08/11 07:00:26;;;;;;;0.50;0.30;;;35.40;50.00;;;;;;5074663;28;20454;-78
2022/08/11 07:01:06;;;;;;;1.47;0.70;;;36.00;50.50;;;;;;5074343;28;20428;-78
2022/08/11 07:03:39;;;;;;;0.50;0.40;;;37.00;47.90;;;;;;5074516;28;20467;-78
2022/08/11 07:06:21;;;;;;;0.47;0.30;;;37.60;47.60;;;;;;5074199;28;20466;-76
2022/08/11 07:15:43;;;;;;;0.40;0.30;;;38.70;44.70;;;;;;5073750;28;20475;-78
2022/08/11 07:29:37;;;;;;;0.40;0.30;;;39.30;43.80;;;;;;5074012;28;20852;-78
2022/08/11 07:32:14;;;;;;;1.10;1.10;;;40.00;44.00;;;;;;5074031;28;20474;-78
2022/08/11 07:34:48;;;;;;;0.40;0.30;;;40.30;42.80;;;;;;5073102;28;20428;-75
2022/08/11 07:37:19;;;;;;;0.40;0.30;;;40.90;42.00;;;;;;5073977;28;20435;-79
2022/08/11 07:39:48;;;;;;;0.40;0.30;;;41.20;41.90;;;;;;5073683;28;20539;-78
2022/08/11 07:42:20;;;;;;;24.97;23.37;;;41.90;41.80;;;;;;5073024;28;20447;-78
2022/08/11 07:53:06;;;;;;;0.40;0.30;;;41.90;40.00;;;;;;5073434;28;20474;-78
2022/08/11 07:55:34;;;;;;;0.40;0.30;;;42.10;39.20;;;;;;5072484;28;20909;-78
2022/08/11 08:20:12;;;;;;;0.40;0.30;;;43.00;38.10;;;;;;5072867;28;20455;-78
2022/08/11 08:22:41;;;;;;;1.07;1.07;;;43.00;37.60;;;;;;5073348;28;20436;-77
2022/08/11 08:25:09;;;;;;;0.40;0.30;;;42.60;38.10;;;;;;5072451;28;20464;-78
2022/08/11 08:27:37;;;;;;;0.40;0.30;;;43.30;37.30;;;;;;5072999;28;20440;-78
2022/08/11 08:32:51;;;;;;;0.40;0.30;;;44.10;37.00;;;;;;5072875;28;20399;-79
2022/08/11 08:35:19;;;;;;;0.40;0.30;;;43.50;36.80;;;;;;5072369;28;20458;-75
2022/08/11 08:37:49;;;;;;;0.40;0.30;;;43.10;37.40;;;;;;5072854;28;20444;-79
2022/08/11 08:40:17;;;;;;;0.40;0.30;;;42.70;37.00;;;;;;5072438;28;20462;-78
2022/08/11 08:42:52;;;;;;;0.40;0.30;;;42.30;37.00;;;;;;5072459;28;20517;-76
2022/08/11 08:45:20;;;;;;;0.40;0.30;;;42.70;37.20;;;;;;5072121;28;21035;-78
2022/08/11 08:47:51;;;;;;;0.40;0.30;;;43.00;38.50;;;;;;5071899;28;20436;-78
2022/08/11 08:50:22;;;;;;;0.40;0.30;;;43.70;37.40;;;;;;5072384;28;20959;-78
2022/08/11 08:52:55;;;;;;;0.40;0.30;;;44.10;36.60;;;;;;5072201;28;20421;-77
2022/08/11 08:55:23;;;;;;;0.40;0.30;;;43.50;36.50;;;;;;5071790;28;20438;-78
2022/08/11 08:57:52;;;;;;;0.50;0.50;;;43.10;36.40;;;;;;5072100;28;20440;-78
2022/08/11 09:00:20;;;;;;;0.40;0.30;;;43.50;36.80;;;;;;5072057;28;20849;-76
2022/08/11 09:02:48;;;;;;;0.40;0.30;;;44.10;37.40;;;;;;5072171;28;20474;-79
2022/08/11 09:05:17;;;;;;;0.40;0.30;;;44.90;36.80;;;;;;5071369;28;20945;-78
2022/08/11 09:07:47;;;;;;;5.50;0.83;;;44.60;35.10;;;;;;5072416;28;20440;-78
2022/08/11 09:10:18;;;;;;;0.40;0.30;;;44.90;36.80;;;;;;5071632;28;20471;-78
2022/08/11 09:12:46;;;;;;;0.40;0.30;;;45.20;35.80;;;;;;5071824;28;20417;-78
2022/08/11 09:15:15;;;;;;;0.40;0.30;;;45.20;35.40;;;;;;5071907;28;20488;-78
2022/08/11 09:17:45;;;;;;;0.50;0.40;;;46.10;35.40;;;;;;5071465;28;20444;-78
2022/08/11 09:20:14;;;;;;;0.40;0.30;;;46.50;34.00;;;;;;5072549;28;20479;-75
2022/08/11 09:28:17;;;;;;;0.40;0.30;;;46.20;33.60;;;;;;5070996;28;20415;-78
2022/08/11 09:30:46;;;;;;;0.70;0.70;;;45.60;34.00;;;;;;5071605;28;20444;-78
2022/08/11 09:33:16;;;;;;;0.40;0.30;;;45.00;34.30;;;;;;5071580;28;20459;-77
2022/08/11 09:35:46;;;;;;;0.40;0.30;;;45.40;35.30;;;;;;5071587;28;20500;-79
2022/08/11 09:41:05;;;;;;;0.40;0.30;;;45.60;32.90;;;;;;5070338;28;20415;-77
2022/08/11 09:46:25;;;;;;;0.40;0.30;;;44.80;34.10;;;;;;5071000;28;20585;-77
2022/08/11 09:48:53;;;;;;;0.83;0.60;;;44.70;33.40;;;;;;5071246;28;20558;-77
2022/08/11 09:51:22;;;;;;;0.40;0.30;;;45.10;32.90;;;;;;5071477;28;20452;-77
2022/08/11 09:53:50;;;;;;;0.40;0.30;;;44.90;33.50;;;;;;5070956;28;20444;-77
2022/08/11 09:59:03;;;;;;;0.40;0.30;;;46.20;32.50;;;;;;5047759;28;20440;-77
2022/08/11 10:01:32;;;;;;;0.40;0.30;;;46.80;31.90;;;;;;5071281;28;20440;-78
2022/08/11 10:04:03;;;;;;;0.40;0.30;;;46.60;32.10;;;;;;5070824;28;20428;-78
2022/08/11 10:09:19;;;;;;;0.40;0.30;;;46.60;31.10;;;;;;5071097;28;21027;-77
2022/08/11 10:11:48;;;;;;;0.40;0.30;;;46.50;31.60;;;;;;5070803;28;20503;-77
2022/08/11 10:17:06;;;;;;;0.40;0.30;;;46.70;32.10;;;;;;5070671;28;20408;-78
2022/08/11 10:19:35;;;;;;;0.40;0.30;;;47.10;31.30;;;;;;5070631;28;20471;-78
2022/08/11 10:27:32;;;;;;;0.40;0.30;;;46.20;30.00;;;;;;5070834;28;20516;-75
2022/08/11 10:35:32;;;;;;;0.40;0.30;;;45.10;30.70;;;;;;5070427;28;20414;-77
2022/08/11 10:38:00;;;;;;;0.40;0.30;;;44.70;31.60;;;;;;5070397;28;20439;-77
2022/08/11 10:40:27;;;;;;;0.40;0.30;;;44.90;31.20;;;;;;5070427;28;20460;-77
2022/08/11 10:43:12;;;;;;;0.40;0.30;;;44.60;31.50;;;;;;5070659;28;20459;-78
2022/08/11 10:48:27;;;;;;;0.40;0.30;;;45.20;32.50;;;;;;5070588;28;20513;-78
2022/08/11 10:51:14;;;;;;;0.40;0.40;;;44.40;31.90;;;;;;5070983;28;20471;-77
2022/08/11 10:59:16;;;;;;;0.40;0.30;;;43.70;32.40;;;;;;5071089;28;20447;-76
2022/08/11 11:01:45;;;;;;;0.40;0.30;;;44.40;32.20;;;;;;5070214;28;20459;-77
2022/08/11 11:04:15;;;;;;;0.60;0.30;;;44.60;31.50;;;;;;5070269;28;20444;-78
2022/08/11 11:06:50;;;;;;;0.40;0.30;;;44.40;31.50;;;;;;5070545;28;20472;-79
2022/08/11 11:09:19;;;;;;;0.40;0.30;;;44.30;30.60;;;;;;5070859;28;20460;-77
2022/08/11 11:18:00;;;;;;;0.40;0.30;;;44.00;30.80;;;;;;5068644;28;20981;-76
2022/08/11 11:20:30;;;;;;;0.50;0.50;;;43.70;32.30;;;;;;5073762;28;20499;-78
2022/08/11 11:23:04;;;;;;;0.40;0.30;;;43.20;31.10;;;;;;5073837;28;20436;-77
2022/08/11 11:26:06;;;;;;;0.40;0.30;;;43.10;31.80;;;;;;5073716;28;20432;-77
2022/08/11 11:29:08;;;;;;;0.40;0.30;;;43.10;32.00;;;;;;5061970;28;20472;-77
2022/08/11 11:31:48;;;;;;;0.40;0.40;;;42.80;31.90;;;;;;5070573;28;20450;-77
2022/08/11 11:34:30;;;;;;;0.40;0.30;;;43.00;31.70;;;;;;5073076;28;20435;-76
2022/08/11 11:36:58;;;;;;;0.40;0.30;;;42.50;32.00;;;;;;5073941;28;20944;-76
2022/08/11 11:39:27;;;;;;;0.40;0.30;;;42.20;32.20;;;;;;5073634;28;20447;-77
2022/08/11 11:41:57;;;;;;;0.40;0.30;;;42.30;32.70;;;;;;5073472;28;20428;-77
2022/08/11 11:44:25;;;;;;;0.70;0.70;;;42.60;33.00;;;;;;5073194;28;20440;-77
2022/08/11 11:46:55;;;;;;;0.40;0.30;;;42.70;32.30;;;;;;5073892;28;20579;-76
2022/08/11 11:49:24;;;;;;;0.57;0.53;;;42.90;32.90;;;;;;5073797;28;20536;-77
2022/08/11 11:51:52;;;;;;;0.40;0.30;;;43.60;32.10;;;;;;5074174;28;20439;-77
2022/08/11 11:54:29;;;;;;;0.40;0.30;;;44.10;32.10;;;;;;5073213;28;20439;-76
2022/08/11 11:56:57;;;;;;;0.40;0.30;;;44.50;31.30;;;;;;5073060;28;20893;-77
2022/08/11 12:02:15;;;;;;;0.40;0.30;;;43.30;31.20;;;;;;5073665;28;20407;-78
2022/08/11 12:04:46;;;;;;;0.40;0.30;;;42.70;32.20;;;;;;5073370;28;20427;-77
2022/08/11 12:09:59;;;;;;;1.67;1.67;;;43.00;31.70;;;;;;5073201;28;20435;-77
2022/08/11 12:15:12;;;;;;;0.40;0.30;;;43.10;33.20;;;;;;5073165;28;20403;-77
2022/08/11 12:17:40;;;;;;;0.40;0.30;;;43.40;33.20;;;;;;5073276;28;20436;-77
2022/08/11 12:20:08;;;;;;;0.40;0.30;;;43.70;31.70;;;;;;5072063;28;20468;-77
2022/08/11 12:28:10;;;;;;;0.40;0.30;;;44.80;31.70;;;;;;5015146;28;20478;-75
2022/08/11 12:30:40;;;;;;;0.97;0.60;;;44.20;30.50;;;;;;5072925;28;20908;-77
2022/08/11 12:33:08;;;;;;;0.40;0.30;;;43.50;30.80;;;;;;5072620;28;20436;-77
2022/08/11 12:35:37;;;;;;;0.40;0.33;;;42.80;32.50;;;;;;5072517;28;20835;-77
2022/08/11 12:38:05;;;;;;;0.40;0.30;;;42.40;32.40;;;;;;5072461;28;21119;-76
2022/08/11 12:46:08;;;;;;;0.40;0.30;;;42.70;32.10;;;;;;5072062;28;20468;-78
2022/08/11 12:54:21;;;;;;;0.40;0.30;;;41.30;33.00;;;;;;5071630;28;20415;-78
2022/08/11 13:05:13;;;;;;;0.40;0.30;;;42.00;32.90;;;;;;5071921;28;20477;-78
2022/08/11 13:07:43;;;;;;;0.40;0.30;;;41.80;33.40;;;;;;5072052;28;20479;-78
2022/08/11 13:10:12;;;;;;;2.00;0.80;;;42.40;33.50;;;;;;5072259;28;20904;-77
2022/08/11 13:12:48;;;;;;;0.40;0.30;;;42.60;32.80;;;;;;5071602;28;20447;-77
2022/08/11 13:15:17;;;;;;;0.67;0.40;;;41.60;33.50;;;;;;5071955;28;20424;-77
2022/08/11 13:17:46;;;;;;;0.40;0.30;;;41.00;33.30;;;;;;5072252;28;20432;-77
2022/08/11 13:20:18;;;;;;;0.40;0.30;;;40.80;33.20;;;;;;5071140;28;20606;-73
2022/08/11 13:22:48;;;;;;;0.40;0.30;;;40.30;33.30;;;;;;5072148;28;20444;-77
2022/08/11 13:25:17;;;;;;;0.40;0.30;;;40.60;34.00;;;;;;5071733;28;20436;-77
2022/08/11 13:27:46;;;;;;;0.40;0.30;;;40.90;33.60;;;;;;5071725;28;20475;-77
2022/08/11 13:33:15;;;;;;;0.40;0.30;;;41.00;33.40;;;;;;5009100;28;20419;-77
2022/08/11 13:35:45;;;;;;;0.40;0.30;;;41.80;33.30;;;;;;5009971;28;20442;-77
2022/08/11 13:38:12;;;;;;;0.40;0.30;;;41.80;33.00;;;;;;5038065;28;20865;-76
2022/08/11 13:40:41;;;;;;;0.40;0.30;;;41.80;32.40;;;;;;5070948;28;20436;-78
2022/08/11 13:43:09;;;;;;;0.40;0.30;;;42.00;33.30;;;;;;5071831;28;20432;-77
2022/08/11 13:45:37;;;;;;;0.40;0.30;;;42.10;32.90;;;;;;5070688;28;20442;-78
2022/08/11 13:48:08;;;;;;;0.40;0.30;;;42.10;32.60;;;;;;5071704;28;20570;-77
2022/08/11 13:53:24;;;;;;;0.50;0.40;;;41.80;33.00;;;;;;5070880;28;20412;-77
2022/08/11 13:55:52;;;;;;;0.40;0.30;;;40.70;33.00;;;;;;5071225;28;20442;-77
2022/08/11 13:58:20;;;;;;;0.40;0.30;;;41.40;34.40;;;;;;5071778;28;20931;-77
2022/08/11 14:00:52;;;;;;;0.40;0.30;;;41.60;33.90;;;;;;5070573;28;20440;-78
2022/08/11 14:03:24;;;;;;;1.47;0.73;;;42.10;33.90;;;;;;5070575;28;20444;-75
2022/08/11 14:05:55;;;;;;;0.53;0.53;;;41.80;32.70;;;;;;5071017;28;20425;-77
2022/08/11 14:08:26;;;;;;;0.40;0.30;;;41.70;33.50;;;;;;5070942;28;20476;-78
2022/08/11 14:13:38;;;;;;;0.40;0.30;;;42.10;32.90;;;;;;5070013;28;20443;-77
2022/08/11 14:16:09;;;;;;;0.50;0.40;;;41.40;32.90;;;;;;5070770;28;20439;-77
2022/08/11 14:18:44;;;;;;;0.40;0.30;;;41.30;33.30;;;;;;5070852;28;20460;-77
2022/08/11 14:24:03;;;;;;;0.40;0.30;;;40.60;33.80;;;;;;5070782;28;20419;-78
2022/08/11 14:26:37;;;;;;;0.40;0.30;;;40.40;34.00;;;;;;5071483;28;20820;-77
2022/08/11 14:29:07;;;;;;;0.40;0.30;;;40.00;33.50;;;;;;5070963;28;20821;-76
2022/08/11 14:31:36;;;;;;;0.40;0.30;;;39.60;33.50;;;;;;5070872;28;20441;-76
2022/08/11 14:34:06;;;;;;;0.40;0.30;;;39.50;34.30;;;;;;5070354;28;20436;-76
2022/08/11 14:36:35;;;;;;;0.40;0.30;;;39.70;34.80;;;;;;5070387;28;20875;-78
2022/08/11 14:39:10;;;;;;;0.40;0.30;;;40.00;34.70;;;;;;5070635;28;21056;-77
2022/08/11 14:47:13;;;;;;;0.40;0.30;;;40.90;34.20;;;;;;5074954;28;20856;-77
2022/08/11 14:49:41;;;;;;;3.80;3.60;;;40.80;33.80;;;;;;5074473;28;20452;-77
2022/08/11 14:52:13;;;;;;;0.40;0.30;;;40.30;33.50;;;;;;5074389;28;20439;-76
2022/08/11 14:57:28;;;;;;;0.40;0.30;;;39.40;34.30;;;;;;5074605;28;20396;-77
2022/08/11 14:59:57;;;;;;;0.40;0.30;;;39.50;35.00;;;;;;5074513;28;20552;-76
2022/08/11 15:05:09;;;;;;;0.50;0.47;;;39.60;35.20;;;;;;5073564;28;20404;-76
2022/08/11 15:07:37;;;;;;;0.63;0.40;;;39.80;34.30;;;;;;5074284;28;20563;-77
2022/08/11 15:10:08;;;;;;;0.40;0.30;;;39.20;34.30;;;;;;5074428;28;20547;-78
2022/08/11 15:12:40;;;;;;;0.50;0.40;;;38.90;35.10;;;;;;5074150;28;20521;-77
2022/08/11 15:18:12;;;;;;;0.40;0.40;;;38.10;34.50;;;;;;5011831;28;20423;-77
2022/08/11 15:37:39;;;;;;;0.50;0.40;;;35.40;36.70;;;;;;5073870;28;20458;-77
2022/08/11 15:45:51;;;;;;;0.50;0.40;;;34.00;38.50;;;;;;5073494;28;20807;-76
2022/08/11 15:48:25;;;;;;;0.60;0.50;;;33.70;39.60;;;;;;5073331;28;20820;-76
2022/08/11 15:50:54;;;;;;;0.50;0.30;;;33.50;39.20;;;;;;5073412;28;20421;-76
2022/08/11 15:53:28;;;;;;;0.50;0.30;;;33.10;40.00;;;;;;5073815;28;20431;-75
2022/08/11 15:55:57;;;;;;;0.50;0.30;;;33.00;39.90;;;;;;5073375;28;20424;-76
2022/08/11 16:04:13;;;;;;;0.50;0.30;;;32.40;40.10;;;;;;5073061;28;20473;-76
2022/08/11 16:06:50;;;;;;;0.50;0.40;;;32.30;40.30;;;;;;5073158;28;20514;-75
2022/08/11 16:09:21;;;;;;;0.50;0.50;;;32.20;40.10;;;;;;5073440;28;20470;-76
2022/08/11 16:11:49;;;;;;;0.50;0.30;;;32.00;40.00;;;;;;5073222;28;20424;-76
2022/08/11 16:17:05;;;;;;;0.50;0.30;;;31.80;40.50;;;;;;5073224;28;20426;-76
2022/08/11 16:19:35;;;;;;;0.50;0.30;;;31.60;40.60;;;;;;5072659;28;20492;-76
2022/08/11 16:22:06;;;;;;;1.97;1.43;;;31.40;41.60;;;;;;5073128;28;20490;-76
2022/08/11 16:24:35;;;;;;;0.93;0.70;;;31.40;41.70;;;;;;5073017;28;20932;-76
2022/08/11 16:27:03;;;;;;;0.50;0.40;;;31.30;41.60;;;;;;5073534;28;20440;-76
2022/08/11 16:29:35;;;;;;;0.50;0.30;;;31.20;41.60;;;;;;5073079;28;20820;-76
2022/08/11 16:32:19;;;;;;;0.50;0.30;;;31.10;41.90;;;;;;5072905;28;20502;-76
2022/08/11 16:40:21;;;;;;;0.60;0.50;;;30.90;41.60;;;;;;5072478;28;20428;-75
2022/08/11 16:48:23;;;;;;;0.50;0.30;;;30.50;42.80;;;;;;5071887;28;20478;-76
2022/08/11 16:50:51;;;;;;;1.13;1.03;;;30.50;43.00;;;;;;5072124;28;20444;-76
2022/08/11 16:53:18;;;;;;;0.50;0.40;;;30.40;42.90;;;;;;5072386;28;20436;-75
2022/08/11 16:55:47;;;;;;;0.60;0.60;;;30.40;43.40;;;;;;5072342;28;20443;-76
2022/08/11 17:01:02;;;;;;;0.50;0.30;;;30.30;42.30;;;;;;5071784;28;20415;-76
2022/08/11 17:14:41;;;;;;;0.50;0.30;;;30.00;43.40;;;;;;5071805;28;20459;-76
2022/08/11 17:17:15;;;;;;;0.50;0.30;;;29.90;43.60;;;;;;5072405;28;20424;-76
2022/08/11 17:19:48;;;;;;;0.50;0.30;;;29.80;44.30;;;;;;5071534;28;20468;-77
2022/08/11 17:25:00;;;;;;;0.50;0.30;;;29.70;44.90;;;;;;5071799;28;20412;-76
2022/08/11 17:27:29;;;;;;;0.50;0.30;;;29.60;45.00;;;;;;5071451;28;20472;-76
2022/08/11 17:30:01;;;;;;;0.50;0.30;;;29.60;44.90;;;;;;5071646;28;20456;-76
2022/08/11 17:35:31;;;;;;;0.50;0.30;;;29.60;44.60;;;;;;5071718;28;20403;-76
2022/08/11 17:38:03;;;;;;;0.50;0.30;;;29.60;44.10;;;;;;5071439;28;20436;-76
2022/08/11 17:40:35;;;;;;;1.23;0.93;;;29.50;44.80;;;;;;5071294;28;20848;-77
2022/08/11 17:48:38;;;;;;;0.50;0.30;;;29.50;43.80;;;;;;5071087;28;20475;-76
2022/08/11 17:51:08;;;;;;;0.50;0.30;;;29.50;43.60;;;;;;5071609;28;20823;-76
2022/08/11 18:03:28;;;;;;;0.50;0.30;;;29.00;45.50;;;;;;5071297;28;20838;-77
2022/08/11 18:04:49;;;;;;;0.50;0.30;;;28.90;45.80;;;;;;5071023;28;20474;-76
